createdAt,value
2023-05-06T00:01:42.989Z,1.40
2023-05-06T00:04:10.383Z,1.98
2023-05-06T00:06:37.966Z,1.50
2023-05-06T00:09:05.329Z,1.60
2023-05-06T00:11:32.477Z,1.70
2023-05-06T00:13:59.743Z,1.70
2023-05-06T00:16:27.313Z,1.75
2023-05-06T00:18:54.685Z,1.65
2023-05-06T00:21:22.081Z,1.80
2023-05-06T00:23:49.342Z,1.73
2023-05-06T00:26:16.650Z,1.98
2023-05-06T00:28:43.968Z,1.83
2023-05-06T00:31:11.563Z,1.65
2023-05-06T00:33:38.792Z,1.30
2023-05-06T00:36:06.576Z,1.75
2023-05-06T00:38:34.140Z,1.60
2023-05-06T00:41:01.792Z,1.92
2023-05-06T00:43:29.109Z,1.40
2023-05-06T00:45:56.644Z,1.77
2023-05-06T00:48:24.454Z,1.50
2023-05-06T00:50:52.172Z,1.80
2023-05-06T00:53:23.857Z,1.35
2023-05-06T00:55:51.551Z,1.55
2023-05-06T00:58:20.669Z,1.77
2023-05-06T01:00:49.058Z,1.58
2023-05-06T01:03:16.480Z,1.55
2023-05-06T01:05:58.076Z,1.70
2023-05-06T01:08:42.445Z,1.50
2023-05-06T01:11:19.975Z,1.45
2023-05-06T01:14:14.262Z,2.08
2023-05-06T01:16:42.270Z,1.52
2023-05-06T01:19:18.182Z,1.83
2023-05-06T01:21:48.148Z,1.70
2023-05-06T01:24:15.618Z,1.92
2023-05-06T01:26:44.189Z,1.88
2023-05-06T01:29:12.176Z,1.92
2023-05-06T01:31:49.000Z,1.90
2023-05-06T01:34:28.136Z,1.67
2023-05-06T01:37:12.551Z,2.17
2023-05-06T01:39:42.210Z,1.90
2023-05-06T01:42:10.956Z,1.85
2023-05-06T01:44:39.994Z,2.00
2023-05-06T01:47:12.042Z,1.80
2023-05-06T01:49:40.327Z,2.00
2023-05-06T01:52:07.542Z,1.90
2023-05-06T01:54:34.755Z,1.88
2023-05-06T01:57:02.982Z,1.70
2023-05-06T01:59:30.435Z,1.70
2023-05-06T02:01:57.815Z,2.05
2023-05-06T02:04:25.178Z,1.83
2023-05-06T02:06:53.837Z,2.03
2023-05-06T02:09:21.481Z,2.92
2023-05-06T02:11:55.510Z,2.08
2023-05-06T02:14:24.703Z,1.55
2023-05-06T02:16:53.261Z,1.65
2023-05-06T02:19:21.833Z,1.40
2023-05-06T02:21:49.337Z,1.50
2023-05-06T02:24:16.697Z,1.52
2023-05-06T02:26:44.278Z,1.48
2023-05-06T02:29:11.425Z,1.80
2023-05-06T02:31:38.729Z,1.60
2023-05-06T02:34:06.983Z,1.58
2023-05-06T02:36:34.317Z,1.52
2023-05-06T02:39:01.561Z,1.80
2023-05-06T02:41:29.274Z,1.27
2023-05-06T02:43:56.473Z,1.60
2023-05-06T02:46:24.019Z,1.50
2023-05-06T02:48:52.679Z,1.63
2023-05-06T02:51:20.103Z,1.63
2023-05-06T02:53:47.202Z,1.25
2023-05-06T02:56:14.477Z,1.23
2023-05-06T02:58:41.615Z,1.30
2023-05-06T03:01:09.422Z,1.50
2023-05-06T03:03:36.800Z,1.40
2023-05-06T03:06:04.080Z,1.55
2023-05-06T03:08:32.887Z,1.52
2023-05-06T03:11:00.825Z,1.55
2023-05-06T03:13:28.264Z,1.70
2023-05-06T03:15:55.976Z,2.10
2023-05-06T03:18:23.894Z,1.23
2023-05-06T03:20:51.646Z,1.60
2023-05-06T03:23:19.623Z,1.60
2023-05-06T03:25:47.606Z,1.50
2023-05-06T03:28:15.260Z,1.42
2023-05-06T03:30:44.751Z,1.33
2023-05-06T03:33:12.569Z,1.20
2023-05-06T03:35:40.299Z,1.15
2023-05-06T03:38:07.693Z,1.20
2023-05-06T03:40:46.237Z,1.40
2023-05-06T03:43:15.394Z,1.20
2023-05-06T03:45:44.736Z,1.20
2023-05-06T03:48:12.472Z,1.33
2023-05-06T03:50:43.393Z,1.40
2023-05-06T03:53:11.792Z,1.52
2023-05-06T03:55:42.115Z,1.45
2023-05-06T03:58:11.776Z,1.30
2023-05-06T04:00:40.426Z,1.40
2023-05-06T04:03:07.975Z,0.90
2023-05-06T04:05:42.590Z,1.00
2023-05-06T04:08:12.133Z,1.33
2023-05-06T04:10:40.911Z,1.20
2023-05-06T04:13:15.821Z,1.00
2023-05-06T04:15:44.917Z,1.20
2023-05-06T04:18:19.359Z,1.35
2023-05-06T04:20:55.431Z,1.48
2023-05-06T04:23:22.835Z,1.20
2023-05-06T04:25:50.930Z,1.33
2023-05-06T04:28:20.852Z,1.30
2023-05-06T04:30:51.767Z,1.40
2023-05-06T04:33:22.477Z,1.20
2023-05-06T04:35:54.012Z,1.25
2023-05-06T04:38:22.787Z,1.20
2023-05-06T04:40:50.449Z,1.27
2023-05-06T04:43:18.425Z,1.40
2023-05-06T04:45:53.017Z,1.40
2023-05-06T04:48:25.074Z,1.30
2023-05-06T04:50:55.769Z,0.93
2023-05-06T04:53:23.586Z,1.05
2023-05-06T04:55:51.189Z,1.20
2023-05-06T04:58:19.782Z,1.30
2023-05-06T05:00:48.410Z,1.20
2023-05-06T05:03:15.942Z,1.33
2023-05-06T05:05:43.769Z,1.52
2023-05-06T05:08:16.680Z,1.08
2023-05-06T05:10:43.989Z,1.42
2023-05-06T05:13:14.840Z,1.30
2023-05-06T05:15:43.939Z,1.30
2023-05-06T05:18:12.998Z,1.40
2023-05-06T05:20:40.655Z,1.25
2023-05-06T05:23:10.597Z,1.30
2023-05-06T05:25:38.620Z,1.30
2023-05-06T05:28:06.348Z,1.40
2023-05-06T05:30:35.319Z,1.40
2023-05-06T05:33:03.632Z,1.55
2023-05-06T05:35:31.930Z,1.27
2023-05-06T05:37:59.461Z,1.50
2023-05-06T05:40:27.560Z,1.42
2023-05-06T05:42:55.533Z,1.60
2023-05-06T05:45:30.268Z,1.48
2023-05-06T05:47:57.726Z,1.60
2023-05-06T05:50:26.431Z,1.38
2023-05-06T05:52:56.267Z,1.40
2023-05-06T05:55:24.191Z,1.40
2023-05-06T05:57:52.335Z,1.25
2023-05-06T06:00:21.800Z,1.33
2023-05-06T06:02:55.380Z,1.45
2023-05-06T06:05:22.949Z,1.60
2023-05-06T06:07:51.545Z,1.50
2023-05-06T06:10:19.113Z,1.30
2023-05-06T06:12:47.137Z,1.33
2023-05-06T06:15:19.589Z,1.60
2023-05-06T06:17:47.288Z,1.40
2023-05-06T06:20:14.567Z,1.50
2023-05-06T06:22:42.124Z,1.30
2023-05-06T06:25:10.381Z,1.20
2023-05-06T06:27:38.277Z,1.10
2023-05-06T06:30:07.124Z,1.30
2023-05-06T06:32:35.027Z,1.30
2023-05-06T06:35:02.324Z,1.38
2023-05-06T06:37:30.359Z,1.55
2023-05-06T06:39:57.608Z,1.30
2023-05-06T06:42:25.929Z,1.17
2023-05-06T06:45:10.342Z,1.27
2023-05-06T06:47:38.156Z,1.20
2023-05-06T06:50:06.824Z,1.60
2023-05-06T06:52:35.652Z,1.42
2023-05-06T06:55:03.445Z,1.23
2023-05-06T06:57:31.208Z,1.30
2023-05-06T06:59:58.629Z,1.40
2023-05-06T07:02:25.840Z,1.42
2023-05-06T07:04:54.008Z,1.50
2023-05-06T07:07:21.308Z,1.25
2023-05-06T07:09:48.739Z,1.23
2023-05-06T07:12:16.137Z,1.23
2023-05-06T07:14:43.361Z,1.73
2023-05-06T07:17:10.958Z,1.85
2023-05-06T07:19:38.712Z,1.70
2023-05-06T07:22:06.264Z,2.97
2023-05-06T07:24:33.952Z,1.40
2023-05-06T07:27:02.334Z,1.35
2023-05-06T07:29:29.654Z,1.60
2023-05-06T07:31:57.008Z,1.60
2023-05-06T07:34:24.229Z,2.08
2023-05-06T07:36:52.270Z,1.70
2023-05-06T07:39:19.858Z,1.85
2023-05-06T07:41:47.170Z,1.30
2023-05-06T07:44:14.737Z,1.38
2023-05-06T07:46:42.214Z,1.83
2023-05-06T07:49:09.513Z,1.30
2023-05-06T07:51:37.148Z,1.50
2023-05-06T07:54:04.716Z,1.20
2023-05-06T07:56:32.118Z,1.10
2023-05-06T07:59:00.158Z,1.35
2023-05-06T08:01:29.911Z,1.40
2023-05-06T08:03:57.342Z,1.33
2023-05-06T08:06:24.561Z,1.60
2023-05-06T08:08:51.975Z,1.42
2023-05-06T08:11:19.534Z,1.40
2023-05-06T08:13:47.306Z,1.40
2023-05-06T08:16:14.733Z,1.20
2023-05-06T08:18:42.110Z,1.50
2023-05-06T08:21:09.775Z,1.48
2023-05-06T08:23:37.303Z,1.27
2023-05-06T08:26:04.889Z,3.25
2023-05-06T08:28:32.459Z,1.52
2023-05-06T08:30:59.970Z,1.67
2023-05-06T08:33:27.818Z,1.30
2023-05-06T08:35:57.739Z,1.33
2023-05-06T08:38:26.077Z,1.08
2023-05-06T08:40:55.123Z,1.52
2023-05-06T08:43:26.461Z,1.33
2023-05-06T08:45:54.948Z,1.48
2023-05-06T08:48:22.742Z,1.40
2023-05-06T08:50:51.201Z,1.70
2023-05-06T08:53:18.912Z,1.60
2023-05-06T08:55:49.529Z,1.23
2023-05-06T08:58:18.800Z,1.48
2023-05-06T09:00:46.975Z,1.50
2023-05-06T09:03:14.510Z,1.50
2023-05-06T09:05:42.398Z,1.30
2023-05-06T09:08:09.835Z,1.13
2023-05-06T09:10:47.494Z,1.48
2023-05-06T09:13:17.077Z,1.50
2023-05-06T09:15:48.872Z,1.65
2023-05-06T09:18:20.000Z,1.50
2023-05-06T09:20:49.749Z,1.42
2023-05-06T09:23:18.684Z,1.40
2023-05-06T09:25:49.849Z,1.52
2023-05-06T09:28:17.816Z,1.45
2023-05-06T09:30:48.559Z,1.40
2023-05-06T09:33:17.209Z,1.70
2023-05-06T09:35:47.051Z,1.60
2023-05-06T09:38:14.560Z,1.40
2023-05-06T09:40:42.668Z,1.58
2023-05-06T09:43:10.986Z,1.50
2023-05-06T09:45:39.113Z,1.45
2023-05-06T09:48:08.380Z,1.50
2023-05-06T09:50:36.981Z,1.40
2023-05-06T09:53:05.983Z,1.48
2023-05-06T09:55:33.954Z,1.40
2023-05-06T09:58:02.070Z,1.60
2023-05-06T10:00:33.119Z,1.48
2023-05-06T10:03:02.117Z,1.27
2023-05-06T10:05:32.231Z,1.60
2023-05-06T10:08:00.825Z,1.30
2023-05-06T10:10:28.893Z,1.85
2023-05-06T10:12:56.637Z,1.67
2023-05-06T10:15:26.348Z,1.67
2023-05-06T10:17:55.237Z,1.30
2023-05-06T10:20:24.774Z,1.30
2023-05-06T10:23:10.526Z,1.55
2023-05-06T10:25:39.880Z,1.35
2023-05-06T10:28:11.398Z,1.40
2023-05-06T10:30:45.196Z,1.25
2023-05-06T10:33:15.208Z,1.40
2023-05-06T10:35:42.733Z,1.25
2023-05-06T10:38:12.376Z,1.40
2023-05-06T10:40:40.773Z,1.55
2023-05-06T10:43:31.297Z,1.10
2023-05-06T10:46:05.542Z,1.13
2023-05-06T10:48:33.799Z,1.10
2023-05-06T10:51:16.769Z,1.30
2023-05-06T10:54:04.750Z,1.67
2023-05-06T10:56:33.952Z,1.10
2023-05-06T10:59:10.175Z,1.33
2023-05-06T11:01:41.922Z,1.05
2023-05-06T11:04:13.369Z,0.90
2023-05-06T11:06:43.827Z,1.10
2023-05-06T11:09:19.740Z,1.10
2023-05-06T11:12:06.485Z,1.02
2023-05-06T11:14:38.753Z,1.45
2023-05-06T11:17:28.891Z,1.10
2023-05-06T11:20:28.630Z,1.40
2023-05-06T11:22:56.395Z,1.30
2023-05-06T11:25:41.588Z,1.00
2023-05-06T11:28:11.849Z,1.60
2023-05-06T11:30:42.657Z,1.48
2023-05-06T11:33:20.431Z,1.48
2023-05-06T11:35:48.200Z,1.30
2023-05-06T11:38:15.462Z,1.42
2023-05-06T11:40:42.949Z,1.30
2023-05-06T11:43:14.560Z,1.58
2023-05-06T11:45:47.283Z,1.38
2023-05-06T11:48:16.014Z,1.50
2023-05-06T11:50:47.660Z,1.95
2023-05-06T11:53:19.373Z,1.33
2023-05-06T11:55:48.090Z,1.02
2023-05-06T11:58:41.703Z,1.17
2023-05-06T12:01:10.602Z,1.55
2023-05-06T12:03:38.225Z,1.50
2023-05-06T12:06:05.852Z,1.23
2023-05-06T12:08:36.123Z,2.00
2023-05-06T12:11:06.768Z,1.65
2023-05-06T12:13:37.092Z,1.60
2023-05-06T12:16:06.202Z,1.83
2023-05-06T12:18:36.442Z,1.42
2023-05-06T12:21:04.435Z,1.60
2023-05-06T12:23:32.278Z,2.28
2023-05-06T12:26:08.468Z,1.60
2023-05-06T12:28:37.254Z,1.92
2023-05-06T12:31:21.098Z,1.40
2023-05-06T12:33:50.541Z,1.27
2023-05-06T12:36:19.487Z,1.20
2023-05-06T12:38:54.167Z,1.30
2023-05-06T12:41:22.753Z,1.33
2023-05-06T12:43:50.445Z,1.55
2023-05-06T12:46:17.851Z,1.35
2023-05-06T12:49:01.907Z,1.30
2023-05-06T12:51:31.085Z,1.50
2023-05-06T12:53:59.184Z,1.15
2023-05-06T12:56:26.683Z,1.60
2023-05-06T12:59:02.592Z,1.65
2023-05-06T13:01:31.839Z,1.60
2023-05-06T13:03:59.556Z,1.08
2023-05-06T13:06:26.672Z,1.23
2023-05-06T13:08:53.719Z,1.30
2023-05-06T13:11:22.529Z,1.52
2023-05-06T13:13:50.003Z,1.63
2023-05-06T13:16:17.376Z,1.50
2023-05-06T13:18:44.700Z,1.48
2023-05-06T13:21:13.299Z,1.52
2023-05-06T13:23:46.973Z,1.40
2023-05-06T13:26:14.696Z,1.10
2023-05-06T13:28:42.250Z,1.40
2023-05-06T13:31:09.960Z,1.25
2023-05-06T13:33:37.386Z,1.33
2023-05-06T13:36:05.627Z,1.35
2023-05-06T13:38:33.080Z,1.27
2023-05-06T13:41:01.550Z,1.23
2023-05-06T13:43:29.046Z,1.20
2023-05-06T13:45:56.472Z,1.80
2023-05-06T13:48:24.809Z,1.38
2023-05-06T13:50:52.239Z,1.50
2023-05-06T13:53:20.141Z,1.33
2023-05-06T13:55:47.872Z,1.33
2023-05-06T13:58:17.340Z,1.05
2023-05-06T14:00:44.692Z,1.40
2023-05-06T14:03:12.781Z,1.30
2023-05-06T14:05:40.521Z,1.20
2023-05-06T14:08:08.465Z,1.30
2023-05-06T14:10:36.057Z,1.35
2023-05-06T14:13:06.180Z,1.35
2023-05-06T14:15:34.544Z,1.40
2023-05-06T14:18:01.857Z,1.00
2023-05-06T14:20:29.299Z,1.20
2023-05-06T14:22:56.616Z,1.20
2023-05-06T14:25:27.104Z,1.23
2023-05-06T14:27:55.183Z,1.20
2023-05-06T14:30:22.864Z,1.20
2023-05-06T14:32:50.480Z,1.30
2023-05-06T14:35:18.489Z,1.27
2023-05-06T14:37:46.357Z,1.50
2023-05-06T14:40:15.620Z,1.60
2023-05-06T14:42:43.147Z,1.40
2023-05-06T14:45:10.999Z,1.27
2023-05-06T14:47:39.353Z,1.33
2023-05-06T14:50:12.413Z,1.83
2023-05-06T14:52:41.067Z,2.40
2023-05-06T14:55:10.923Z,1.58
2023-05-06T14:57:38.692Z,1.50
2023-05-06T15:00:10.272Z,1.83
2023-05-06T15:02:38.483Z,1.65
2023-05-06T15:05:09.971Z,1.65
2023-05-06T15:07:37.978Z,1.38
2023-05-06T15:10:06.033Z,1.38
2023-05-06T15:12:37.411Z,1.25
2023-05-06T15:15:06.039Z,1.30
2023-05-06T15:17:34.180Z,1.27
2023-05-06T15:20:01.397Z,1.40
2023-05-06T15:22:32.088Z,1.80
2023-05-06T15:24:59.295Z,1.60
2023-05-06T15:27:26.698Z,1.33
2023-05-06T15:29:54.046Z,1.65
2023-05-06T15:32:21.353Z,1.30
2023-05-06T15:34:48.885Z,1.45
2023-05-06T15:37:19.494Z,1.33
2023-05-06T15:39:48.038Z,1.60
2023-05-06T15:42:17.081Z,1.90
2023-05-06T15:44:48.448Z,1.63
2023-05-06T15:47:19.678Z,1.70
2023-05-06T15:49:52.936Z,2.50
2023-05-06T15:52:23.208Z,1.60
2023-05-06T15:54:51.305Z,1.80
2023-05-06T15:57:19.916Z,1.60
2023-05-06T15:59:47.339Z,1.50
2023-05-06T16:02:26.964Z,1.27
2023-05-06T16:04:56.777Z,1.67
2023-05-06T16:07:24.235Z,1.60
2023-05-06T16:09:51.776Z,1.65
2023-05-06T16:12:19.049Z,2.13
2023-05-06T16:14:46.928Z,2.10
2023-05-06T16:17:15.969Z,1.30
2023-05-06T16:19:43.492Z,1.70
2023-05-06T16:22:10.903Z,1.70
2023-05-06T16:24:38.529Z,1.42
2023-05-06T16:27:08.452Z,1.20
2023-05-06T16:29:36.062Z,1.33
2023-05-06T16:32:05.712Z,1.40
2023-05-06T16:34:34.968Z,1.35
2023-05-06T16:37:05.655Z,1.70
2023-05-06T16:39:33.527Z,1.52
2023-05-06T16:42:02.010Z,1.33
2023-05-06T16:44:29.539Z,1.60
2023-05-06T16:46:57.035Z,1.20
2023-05-06T16:49:27.948Z,1.50
2023-05-06T16:51:57.128Z,1.30
2023-05-06T16:54:25.675Z,1.50
2023-05-06T16:56:53.196Z,1.20
2023-05-06T16:59:22.187Z,1.27
2023-05-06T17:01:53.425Z,1.60
2023-05-06T17:04:22.871Z,1.50
2023-05-06T17:06:50.073Z,1.50
2023-05-06T17:09:18.137Z,1.70
2023-05-06T17:11:45.769Z,1.73
2023-05-06T17:14:14.112Z,1.63
2023-05-06T17:16:43.327Z,1.92
2023-05-06T17:19:13.819Z,1.67
2023-05-06T17:21:41.749Z,1.80
2023-05-06T17:24:09.359Z,1.65
2023-05-06T17:26:38.538Z,2.00
2023-05-06T17:29:06.426Z,1.98
2023-05-06T17:31:33.792Z,1.92
2023-05-06T17:34:01.162Z,1.70
2023-05-06T17:36:28.545Z,1.70
2023-05-06T17:39:05.600Z,1.65
2023-05-06T17:41:33.791Z,1.75
2023-05-06T17:44:01.454Z,2.35
2023-05-06T17:46:28.741Z,1.60
2023-05-06T17:48:55.997Z,1.58
2023-05-06T17:51:23.466Z,2.22
2023-05-06T17:53:50.703Z,2.10
2023-05-06T17:56:18.195Z,2.00
2023-05-06T17:58:45.621Z,2.22
2023-05-06T18:01:13.161Z,2.17
2023-05-06T18:03:40.807Z,2.03
2023-05-06T18:06:08.474Z,2.33
2023-05-06T18:08:35.678Z,2.35
2023-05-06T18:11:03.368Z,3.78
2023-05-06T18:13:35.555Z,1.90
2023-05-06T18:16:04.668Z,2.50
2023-05-06T18:18:31.987Z,2.25
2023-05-06T18:20:59.391Z,2.15
2023-05-06T18:23:26.628Z,1.92
2023-05-06T18:25:54.128Z,2.63
2023-05-06T18:28:21.569Z,2.00
2023-05-06T18:30:48.893Z,2.45
2023-05-06T18:33:16.201Z,2.35
2023-05-06T18:35:43.680Z,1.92
2023-05-06T18:38:11.679Z,2.30
2023-05-06T18:40:39.502Z,2.50
2023-05-06T18:43:08.381Z,2.20
2023-05-06T18:45:35.784Z,2.33
2023-05-06T18:48:03.557Z,2.13
2023-05-06T18:50:32.051Z,3.03
2023-05-06T18:52:59.354Z,2.83
2023-05-06T18:55:26.881Z,2.58
2023-05-06T18:57:57.418Z,2.25
2023-05-06T19:00:26.651Z,2.20
2023-05-06T19:02:54.524Z,2.50
2023-05-06T19:05:22.222Z,2.20
2023-05-06T19:07:49.628Z,1.83
2023-05-06T19:10:16.808Z,2.40
2023-05-06T19:12:45.673Z,2.30
2023-05-06T19:15:14.188Z,2.35
2023-05-06T19:17:41.683Z,2.10
2023-05-06T19:20:09.502Z,2.20
2023-05-06T19:22:38.132Z,2.08
2023-05-06T19:25:05.851Z,2.55
2023-05-06T19:27:33.311Z,2.42
2023-05-06T19:30:01.605Z,2.33
2023-05-06T19:32:33.222Z,2.33
2023-05-06T19:35:08.157Z,2.00
2023-05-06T19:37:37.586Z,2.50
2023-05-06T19:40:06.569Z,2.20
2023-05-06T19:42:34.488Z,2.35
2023-05-06T19:45:09.362Z,2.45
2023-05-06T19:47:40.435Z,2.60
2023-05-06T19:50:08.655Z,2.80
2023-05-06T19:52:35.982Z,2.55
2023-05-06T19:55:03.609Z,2.95
2023-05-06T19:57:34.025Z,2.92
2023-05-06T20:00:06.096Z,2.53
2023-05-06T20:02:34.679Z,2.55
2023-05-06T20:05:02.390Z,2.25
2023-05-06T20:07:33.466Z,2.38
2023-05-06T20:10:01.216Z,2.03
2023-05-06T20:12:28.627Z,2.85
2023-05-06T20:14:56.660Z,2.90
2023-05-06T20:17:25.002Z,2.65
2023-05-06T20:19:52.624Z,2.72
2023-05-06T20:22:19.929Z,3.10
2023-05-06T20:24:47.392Z,3.13
2023-05-06T20:27:14.882Z,3.40
2023-05-06T20:29:42.846Z,2.53
2023-05-06T20:32:10.091Z,3.05
2023-05-06T20:34:37.679Z,2.70
2023-05-06T20:37:05.012Z,2.90
2023-05-06T20:39:32.723Z,3.25
2023-05-06T20:42:00.205Z,2.90
2023-05-06T20:44:27.379Z,2.80
2023-05-06T20:46:54.513Z,2.88
2023-05-06T20:49:21.829Z,3.58
2023-05-06T20:51:49.151Z,2.88
2023-05-06T20:54:16.893Z,3.00
2023-05-06T20:56:44.680Z,3.20
2023-05-06T20:59:12.282Z,2.63
2023-05-06T21:01:39.754Z,3.10
2023-05-06T21:04:07.921Z,3.20
2023-05-06T21:06:35.089Z,3.30
2023-05-06T21:09:02.499Z,2.92
2023-05-06T21:11:29.706Z,3.20
2023-05-06T21:13:57.958Z,3.45
2023-05-06T21:16:25.140Z,2.72
2023-05-06T21:18:52.703Z,2.90
2023-05-06T21:21:20.197Z,2.55
2023-05-06T21:23:47.757Z,2.53
2023-05-06T21:26:15.793Z,3.25
2023-05-06T21:28:43.026Z,3.10
2023-05-06T21:31:10.488Z,3.05
2023-05-06T21:33:37.698Z,2.92
2023-05-06T21:36:05.492Z,3.13
2023-05-06T21:38:32.808Z,2.90
2023-05-06T21:41:00.607Z,3.20
2023-05-06T21:43:27.940Z,3.67
2023-05-06T21:45:55.532Z,2.80
2023-05-06T21:48:23.112Z,2.58
2023-05-06T21:50:50.498Z,2.80
2023-05-06T21:53:18.232Z,2.75
2023-05-06T21:55:45.658Z,2.90
2023-05-06T21:58:13.208Z,2.60
2023-05-06T22:00:40.419Z,2.70
2023-05-06T22:03:07.837Z,2.60
2023-05-06T22:05:35.439Z,2.88
2023-05-06T22:08:02.761Z,2.78
2023-05-06T22:10:30.219Z,3.30
2023-05-06T22:13:00.217Z,2.60
2023-05-06T22:15:27.539Z,3.30
2023-05-06T22:17:54.780Z,4.03
2023-05-06T22:20:22.987Z,3.00
2023-05-06T22:22:54.234Z,3.50
2023-05-06T22:25:21.699Z,3.25
2023-05-06T22:27:49.125Z,3.17
2023-05-06T22:30:16.493Z,2.92
2023-05-06T22:32:43.857Z,2.63
2023-05-06T22:35:11.661Z,2.85
2023-05-06T22:37:39.266Z,3.17
2023-05-06T22:40:10.208Z,3.10
2023-05-06T22:42:37.874Z,2.83
2023-05-06T22:45:06.447Z,2.78
2023-05-06T22:47:34.180Z,2.33
2023-05-06T22:50:01.352Z,2.92
2023-05-06T22:52:33.080Z,3.03
2023-05-06T22:55:00.660Z,2.90
2023-05-06T22:57:28.018Z,2.70
2023-05-06T22:59:55.351Z,3.17
2023-05-06T23:02:23.019Z,3.05
2023-05-06T23:04:50.202Z,3.03
2023-05-06T23:07:17.781Z,3.30
2023-05-06T23:09:45.257Z,3.10
2023-05-06T23:12:12.700Z,3.50
2023-05-06T23:14:40.067Z,3.28
2023-05-06T23:17:07.419Z,3.25
2023-05-06T23:19:34.952Z,3.40
2023-05-06T23:22:02.132Z,3.10
2023-05-06T23:24:29.541Z,3.42
2023-05-06T23:26:56.688Z,3.15
2023-05-06T23:29:24.080Z,3.55
2023-05-06T23:31:53.536Z,3.03
2023-05-06T23:34:21.003Z,3.70
2023-05-06T23:36:48.320Z,3.53
2023-05-06T23:39:15.612Z,3.10
2023-05-06T23:41:43.143Z,2.97
2023-05-06T23:44:10.395Z,3.83
2023-05-06T23:46:37.596Z,3.70
2023-05-06T23:49:05.867Z,3.20
2023-05-06T23:51:33.011Z,3.03
2023-05-06T23:54:00.249Z,3.70
2023-05-06T23:56:27.787Z,3.40
2023-05-06T23:58:55.211Z,3.60
